createdAt,value
2023-02-17T00:03:57.527Z,10.70
2023-02-17T00:08:04.299Z,10.70
2023-02-17T00:12:11.052Z,10.70
2023-02-17T00:16:20.686Z,10.70
2023-02-17T00:20:30.056Z,10.80
2023-02-17T00:24:40.790Z,10.70
2023-02-17T00:28:48.637Z,10.70
2023-02-17T00:32:55.346Z,10.70
2023-02-17T00:37:02.392Z,10.70
2023-02-17T00:41:09.480Z,10.70
2023-02-17T00:45:16.466Z,10.80
2023-02-17T00:49:25.931Z,10.70
2023-02-17T00:53:32.760Z,10.80
2023-02-17T00:57:39.470Z,10.80
2023-02-17T01:01:46.520Z,10.80
2023-02-17T01:05:54.789Z,10.80
2023-02-17T01:10:01.494Z,10.80
2023-02-17T01:14:08.325Z,10.80
2023-02-17T01:18:15.500Z,10.90
2023-02-17T01:22:22.180Z,10.90
2023-02-17T01:26:30.692Z,10.90
2023-02-17T01:30:37.618Z,10.90
2023-02-17T01:34:44.314Z,10.90
2023-02-17T01:38:51.284Z,10.90
2023-02-17T01:42:57.998Z,10.90
2023-02-17T01:47:04.692Z,10.90
2023-02-17T01:51:21.781Z,10.90
2023-02-17T01:55:29.295Z,10.80
2023-02-17T01:59:36.414Z,10.90
2023-02-17T02:03:43.977Z,10.90
2023-02-17T02:07:51.443Z,10.90
2023-02-17T02:12:00.012Z,10.90
2023-02-17T02:16:18.935Z,10.90
2023-02-17T02:20:45.741Z,10.90
2023-02-17T02:25:14.134Z,10.90
2023-02-17T02:29:52.386Z,10.90
2023-02-17T02:34:46.033Z,10.80
2023-02-17T02:39:01.677Z,10.80
2023-02-17T02:43:08.576Z,10.70
2023-02-17T02:47:54.997Z,10.80
2023-02-17T02:52:04.700Z,10.80
2023-02-17T02:56:48.859Z,10.70
2023-02-17T03:01:14.054Z,10.70
2023-02-17T03:05:36.121Z,10.80
2023-02-17T03:09:42.941Z,10.70
2023-02-17T03:13:49.611Z,10.70
2023-02-17T03:17:58.177Z,10.70
2023-02-17T03:22:22.779Z,10.80
2023-02-17T03:26:29.456Z,10.70
2023-02-17T03:30:36.739Z,10.70
2023-02-17T03:34:43.410Z,10.70
2023-02-17T03:38:50.172Z,10.70
2023-02-17T03:42:57.767Z,10.70
2023-02-17T03:47:04.434Z,10.60
2023-02-17T03:51:19.881Z,10.60
2023-02-17T03:55:26.555Z,10.70
2023-02-17T03:59:33.293Z,10.60
2023-02-17T04:03:40.973Z,10.70
2023-02-17T04:07:47.935Z,10.60
2023-02-17T04:11:54.604Z,10.60
2023-02-17T04:16:04.196Z,10.60
2023-02-17T04:20:11.683Z,10.60
2023-02-17T04:24:18.498Z,10.70
2023-02-17T04:28:26.277Z,10.70
2023-02-17T04:32:32.980Z,10.70
2023-02-17T04:36:39.714Z,10.80
2023-02-17T04:40:46.424Z,10.80
2023-02-17T04:44:53.106Z,10.80
2023-02-17T04:48:59.787Z,10.80
2023-02-17T04:53:06.924Z,10.80
2023-02-17T04:57:13.633Z,10.80
2023-02-17T05:01:20.349Z,10.80
2023-02-17T05:05:27.421Z,10.80
2023-02-17T05:09:34.115Z,10.70
2023-02-17T05:13:40.970Z,10.70
2023-02-17T05:17:47.683Z,10.60
2023-02-17T05:21:54.488Z,10.60
2023-02-17T05:26:01.147Z,10.70
2023-02-17T05:30:08.240Z,10.70
2023-02-17T05:34:14.963Z,10.70
2023-02-17T05:38:21.648Z,10.60
2023-02-17T05:42:28.973Z,10.50
2023-02-17T05:46:35.792Z,10.40
2023-02-17T05:50:42.560Z,10.50
2023-02-17T05:54:49.321Z,10.50
2023-02-17T05:58:56.016Z,10.50
2023-02-17T06:03:02.788Z,10.50
2023-02-17T06:07:09.485Z,10.50
2023-02-17T06:11:16.182Z,10.40
2023-02-17T06:15:23.006Z,10.50
2023-02-17T06:19:30.015Z,10.60
2023-02-17T06:23:36.710Z,10.60
2023-02-17T06:27:44.287Z,10.60
2023-02-17T06:31:51.027Z,10.60
2023-02-17T06:35:57.915Z,10.50
2023-02-17T06:40:05.491Z,10.50
2023-02-17T06:44:12.177Z,10.50
2023-02-17T06:48:18.944Z,10.60
2023-02-17T06:52:25.709Z,10.60
2023-02-17T06:56:32.394Z,10.60
2023-02-17T07:00:39.080Z,10.60
2023-02-17T07:04:45.778Z,10.60
2023-02-17T07:08:53.289Z,10.60
2023-02-17T07:13:00.201Z,10.60
2023-02-17T07:17:06.922Z,10.60
2023-02-17T07:21:13.607Z,10.60
2023-02-17T07:25:20.310Z,10.70
2023-02-17T07:29:27.561Z,10.70
2023-02-17T07:33:34.944Z,10.80
2023-02-17T07:37:41.619Z,10.80
2023-02-17T07:41:48.290Z,10.80
2023-02-17T07:45:56.660Z,10.80
2023-02-17T07:50:05.650Z,10.80
2023-02-17T07:54:13.342Z,10.80
2023-02-17T07:58:20.021Z,10.80
2023-02-17T08:02:27.071Z,10.90
2023-02-17T08:06:33.757Z,11.00
2023-02-17T08:10:59.466Z,11.00
2023-02-17T08:15:08.755Z,11.10
2023-02-17T08:19:15.503Z,11.10
2023-02-17T08:23:22.501Z,11.10
2023-02-17T08:27:29.192Z,11.20
2023-02-17T08:31:37.285Z,11.20
2023-02-17T08:35:45.307Z,11.30
2023-02-17T08:39:52.117Z,11.40
2023-02-17T08:44:00.818Z,11.40
2023-02-17T08:48:07.620Z,11.40
2023-02-17T08:52:14.326Z,11.50
2023-02-17T08:56:22.039Z,11.50
2023-02-17T09:00:28.902Z,11.60
2023-02-17T09:04:35.624Z,11.60
2023-02-17T09:08:44.389Z,11.60
2023-02-17T09:12:51.918Z,11.60
2023-02-17T09:16:58.698Z,11.70
2023-02-17T09:21:10.886Z,11.60
2023-02-17T09:25:17.665Z,11.70
2023-02-17T09:29:24.361Z,11.70
2023-02-17T09:33:31.131Z,11.70
2023-02-17T09:37:37.797Z,11.80
2023-02-17T09:41:48.302Z,11.80
2023-02-17T09:46:02.392Z,11.90
2023-02-17T09:50:34.825Z,12.10
2023-02-17T09:54:46.724Z,12.20
2023-02-17T09:58:58.659Z,12.10
2023-02-17T10:03:10.809Z,12.10
2023-02-17T10:07:25.226Z,12.10
2023-02-17T10:11:35.379Z,12.10
2023-02-17T10:15:48.537Z,12.30
2023-02-17T10:20:03.464Z,12.20
2023-02-17T10:24:10.341Z,12.40
2023-02-17T10:28:46.704Z,12.40
2023-02-17T10:32:53.417Z,12.40
2023-02-17T10:37:25.134Z,12.40
2023-02-17T10:41:38.331Z,12.30
2023-02-17T10:45:50.055Z,12.30
2023-02-17T10:49:58.165Z,12.20
2023-02-17T10:54:16.474Z,12.20
2023-02-17T10:58:47.129Z,12.20
2023-02-17T11:02:54.310Z,12.20
2023-02-17T11:07:03.204Z,12.10
2023-02-17T11:11:18.858Z,12.20
2023-02-17T11:15:43.306Z,12.30
2023-02-17T11:20:04.498Z,12.40
2023-02-17T11:24:11.815Z,12.40
2023-02-17T11:28:24.099Z,12.30
2023-02-17T11:32:32.779Z,12.30
2023-02-17T11:36:39.491Z,12.30
2023-02-17T11:41:00.614Z,12.10
2023-02-17T11:45:23.055Z,12.00
2023-02-17T11:49:39.812Z,12.00
2023-02-17T11:54:23.031Z,12.70
2023-02-17T11:58:56.527Z,12.30
2023-02-17T12:03:47.344Z,12.30
2023-02-17T12:08:15.642Z,12.10
2023-02-17T12:12:42.596Z,12.10
2023-02-17T12:17:05.879Z,12.30
2023-02-17T12:21:30.347Z,12.30
2023-02-17T12:25:52.193Z,12.40
2023-02-17T12:30:23.624Z,12.20
2023-02-17T12:34:47.618Z,12.10
2023-02-17T12:39:01.557Z,12.10
2023-02-17T12:43:25.066Z,12.00
2023-02-17T12:47:55.289Z,11.80
2023-02-17T12:52:11.119Z,11.70
2023-02-17T12:56:31.268Z,11.60
2023-02-17T13:00:40.820Z,11.60
2023-02-17T13:05:17.998Z,11.50
2023-02-17T13:09:28.915Z,11.50
2023-02-17T13:13:35.768Z,11.50
2023-02-17T13:18:06.640Z,11.50
2023-02-17T13:22:22.728Z,11.50
2023-02-17T13:26:32.669Z,11.60
2023-02-17T13:30:45.216Z,11.60
2023-02-17T13:35:05.897Z,11.50
2023-02-17T13:39:27.793Z,11.50
2023-02-17T13:43:42.319Z,11.60
2023-02-17T13:47:51.405Z,11.70
2023-02-17T13:52:08.151Z,11.60
2023-02-17T13:56:29.675Z,11.80
2023-02-17T14:00:36.334Z,11.90
2023-02-17T14:04:43.598Z,12.10
2023-02-17T14:08:50.316Z,12.20
2023-02-17T14:12:57.949Z,12.10
2023-02-17T14:17:13.266Z,12.20
2023-02-17T14:21:26.772Z,12.20
2023-02-17T14:25:37.498Z,12.10
2023-02-17T14:29:47.160Z,12.30
2023-02-17T14:34:01.990Z,12.20
2023-02-17T14:38:20.117Z,12.20
2023-02-17T14:42:26.767Z,12.30
2023-02-17T14:46:34.510Z,12.40
2023-02-17T14:50:45.003Z,12.40
2023-02-17T14:54:52.172Z,12.30
2023-02-17T14:58:59.021Z,12.30
2023-02-17T15:03:05.715Z,12.20
2023-02-17T15:07:15.145Z,12.10
2023-02-17T15:11:32.049Z,12.30
2023-02-17T15:15:40.555Z,12.30
2023-02-17T15:19:47.205Z,12.20
2023-02-17T15:23:55.426Z,12.10
2023-02-17T15:28:02.123Z,12.10
2023-02-17T15:32:20.273Z,12.20
2023-02-17T15:36:28.548Z,12.20
2023-02-17T15:40:35.349Z,12.20
2023-02-17T15:44:48.812Z,12.20
2023-02-17T15:48:55.659Z,12.10
2023-02-17T15:53:02.795Z,12.10
2023-02-17T15:57:22.116Z,12.20
2023-02-17T16:01:32.485Z,12.30
2023-02-17T16:05:40.262Z,12.30
2023-02-17T16:09:46.984Z,12.30
2023-02-17T16:13:53.857Z,12.30
2023-02-17T16:18:00.708Z,12.30
2023-02-17T16:22:07.660Z,12.20
2023-02-17T16:26:25.721Z,12.20
2023-02-17T16:30:35.992Z,12.20
2023-02-17T16:34:42.874Z,12.30
2023-02-17T16:38:53.035Z,12.20
2023-02-17T16:43:01.119Z,12.10
2023-02-17T16:47:18.887Z,11.90
2023-02-17T16:51:26.144Z,11.90
2023-02-17T16:55:35.706Z,11.90
2023-02-17T16:59:42.397Z,11.90
2023-02-17T17:03:49.077Z,11.90
2023-02-17T17:07:56.167Z,11.90
2023-02-17T17:12:02.866Z,11.80
2023-02-17T17:16:15.712Z,11.90
2023-02-17T17:20:30.889Z,12.00
2023-02-17T17:24:37.750Z,11.90
2023-02-17T17:28:44.562Z,11.80
2023-02-17T17:32:51.633Z,11.80
2023-02-17T17:36:59.651Z,11.80
2023-02-17T17:41:06.375Z,11.80
2023-02-17T17:45:14.390Z,11.70
2023-02-17T17:49:21.189Z,11.60
2023-02-17T17:53:27.880Z,11.30
2023-02-17T17:57:34.631Z,11.20
2023-02-17T18:01:43.241Z,11.00
2023-02-17T18:05:51.375Z,11.00
2023-02-17T18:09:58.567Z,10.90
2023-02-17T18:14:11.460Z,10.80
2023-02-17T18:18:20.216Z,10.80
2023-02-17T18:22:27.022Z,10.70
2023-02-17T18:26:34.210Z,10.70
2023-02-17T18:30:40.955Z,10.70
2023-02-17T18:34:48.228Z,10.70
2023-02-17T18:38:55.108Z,10.70
2023-02-17T18:43:01.828Z,10.80
2023-02-17T18:47:08.576Z,10.80
2023-02-17T18:51:17.340Z,10.80
2023-02-17T18:55:24.013Z,10.80
2023-02-17T18:59:32.426Z,10.80
2023-02-17T19:03:39.091Z,10.90
2023-02-17T19:07:45.959Z,10.90
2023-02-17T19:11:52.670Z,10.80
2023-02-17T19:16:17.734Z,10.90
2023-02-17T19:20:28.460Z,10.80
2023-02-17T19:24:39.434Z,10.80
2023-02-17T19:28:46.622Z,10.90
2023-02-17T19:32:53.328Z,10.90
2023-02-17T19:37:00.157Z,10.90
2023-02-17T19:41:09.077Z,10.90
2023-02-17T19:45:15.794Z,11.00
2023-02-17T19:49:22.497Z,11.10
2023-02-17T19:53:31.245Z,11.10
2023-02-17T19:57:38.337Z,11.00
2023-02-17T20:01:45.328Z,11.00
2023-02-17T20:05:52.048Z,10.90
2023-02-17T20:09:58.791Z,10.90
2023-02-17T20:14:06.134Z,10.80
2023-02-17T20:18:13.969Z,10.70
2023-02-17T20:22:21.323Z,10.70
2023-02-17T20:26:30.930Z,10.60
2023-02-17T20:30:37.767Z,10.60
2023-02-17T20:34:44.506Z,10.60
2023-02-17T20:38:51.281Z,10.60
2023-02-17T20:42:58.907Z,10.50
2023-02-17T20:47:05.788Z,10.50
2023-02-17T20:51:12.464Z,10.50
2023-02-17T20:55:19.720Z,10.60
2023-02-17T20:59:26.795Z,10.50
2023-02-17T21:03:33.492Z,10.70
2023-02-17T21:07:40.334Z,10.60
2023-02-17T21:11:47.102Z,10.60
2023-02-17T21:15:53.823Z,10.70
2023-02-17T21:20:00.547Z,10.60
2023-02-17T21:24:07.358Z,10.50
2023-02-17T21:28:15.822Z,10.40
2023-02-17T21:32:26.654Z,10.20
2023-02-17T21:36:33.402Z,10.20
2023-02-17T21:40:40.091Z,10.10
2023-02-17T21:44:52.497Z,10.10
2023-02-17T21:49:00.109Z,10.00
2023-02-17T21:53:06.760Z,10.00
2023-02-17T21:57:13.426Z,10.00
2023-02-17T22:01:21.321Z,10.00
2023-02-17T22:05:31.635Z,10.00
2023-02-17T22:09:38.321Z,10.00
2023-02-17T22:13:46.924Z,10.00
2023-02-17T22:17:53.733Z,9.90
2023-02-17T22:22:00.379Z,10.00
2023-02-17T22:26:16.006Z,9.90
2023-02-17T22:30:24.417Z,10.00
2023-02-17T22:34:31.226Z,10.00
2023-02-17T22:38:38.010Z,9.90
2023-02-17T22:42:44.736Z,9.90
2023-02-17T22:46:51.416Z,9.90
2023-02-17T22:50:58.302Z,10.00
2023-02-17T22:55:05.359Z,10.00
2023-02-17T22:59:12.034Z,9.90
2023-02-17T23:03:18.805Z,9.80
2023-02-17T23:07:25.519Z,9.80
2023-02-17T23:11:50.535Z,9.70
2023-02-17T23:15:57.235Z,9.70
2023-02-17T23:20:04.125Z,9.60
2023-02-17T23:24:11.090Z,9.50
2023-02-17T23:28:19.451Z,9.60
2023-02-17T23:32:26.137Z,9.60
2023-02-17T23:36:32.916Z,9.70
2023-02-17T23:40:40.037Z,9.70
2023-02-17T23:44:46.691Z,9.70
2023-02-17T23:48:53.340Z,9.70
2023-02-17T23:53:00.030Z,9.70
2023-02-17T23:57:06.816Z,9.70
